MET'MAP v2.0
soon released !

Expected late october,
this new version will be
more efficient, smarter,
and hosted on a brand new
server x3 powerfull...
...and still free !


Not compatible ?
Try the mobile version !

LOG IN : | Subscribe | Disclaimer | Who is Orbifly ? |
ICAO code :

TAF - ESKN Skavsta - 27 May 2020 11:13 UTC - Data Source NOAA   


- Airport Elevation : 140 ft
- IATA code : NYO
- No reported NOTAMs.


ESKN - Skavsta

Latest METAR recorded : 2015/08/11 07:50 ESKN 110750Z 18006KT CAVOK 19/14 Q1019
TAF TAF ESKN
Valid from the 27 at 06:00 until the 28 at 06:00 UTC


270530Z 2706/2806 27007KT CAVOK
TEMPO 2714/2719 SHRA BKN035CB
BECMG 2715/2717 36010KT
PROB40 2721/2804 4000 BR

Source NOAA


MET'MAP, your aeronautical weather chart ! - Copyright ORBIFLY December 2007

Programming & Development : Alexandra Zaïnal
Co-Developer : Marc-Olivier Méhu
Technical & hardware support : Manuel Goepfert
Concept & Financing : Baudouin d'Aumeries